createdAt,value
2023-05-13T00:03:49.040Z,4.3
2023-05-13T00:05:03.772Z,4.3
2023-05-13T00:06:17.314Z,4.2
2023-05-13T00:08:45.576Z,4.1
2023-05-13T00:11:13.828Z,4.4
2023-05-13T00:13:42.086Z,4.4
2023-05-13T00:16:10.341Z,4.2
2023-05-13T00:18:38.605Z,4.1
2023-05-13T00:21:06.862Z,4.2
2023-05-13T00:23:35.111Z,4.3
2023-05-13T00:26:03.370Z,4.1
2023-05-13T00:28:31.627Z,4
2023-05-13T00:29:46.355Z,3.9
2023-05-13T00:33:28.396Z,4.4
2023-05-13T00:35:56.646Z,4.2
2023-05-13T00:38:24.904Z,4.2
2023-05-13T00:40:53.160Z,4.7
2023-05-13T00:43:21.422Z,4.8
2023-05-13T00:45:49.671Z,4.3
2023-05-13T00:48:17.927Z,4.7
2023-05-13T00:50:46.187Z,4.8
2023-05-13T00:53:14.443Z,4.9
2023-05-13T00:54:29.175Z,4.8
2023-05-13T00:55:42.719Z,4.7
2023-05-13T00:58:10.980Z,4.7
2023-05-13T01:00:39.229Z,4.6
2023-05-13T01:05:35.746Z,5.1
2023-05-13T01:08:04.007Z,5
2023-05-13T01:10:32.257Z,4.8
2023-05-13T01:13:00.519Z,5
2023-05-13T01:15:28.779Z,5.1
2023-05-13T01:17:57.031Z,5.6
2023-05-13T01:19:11.756Z,5.6
2023-05-13T01:20:25.305Z,5.6
2023-05-13T01:22:53.561Z,5.2
2023-05-13T01:25:21.825Z,5.4
2023-05-13T01:27:50.079Z,4.9
2023-05-13T01:30:18.335Z,5.7
2023-05-13T01:32:46.588Z,5.6
2023-05-13T01:37:43.106Z,5.4
2023-05-13T01:40:11.360Z,5.1
2023-05-13T01:42:39.614Z,6.3
2023-05-13T01:43:54.342Z,5.6
2023-05-13T01:45:07.890Z,5.9
2023-05-13T01:47:36.153Z,5.9
2023-05-13T01:50:04.403Z,5.3
2023-05-13T01:52:32.664Z,6
2023-05-13T01:55:00.919Z,6.1
2023-05-13T01:57:29.176Z,6.1
2023-05-13T01:59:57.428Z,6.2
2023-05-13T02:02:25.688Z,6.6
2023-05-13T02:04:53.943Z,6.3
2023-05-13T02:08:36.934Z,6.5
2023-05-13T02:09:50.475Z,6.4
2023-05-13T02:12:18.738Z,6.7
2023-05-13T02:14:46.992Z,6.1
2023-05-13T02:17:15.250Z,6.6
2023-05-13T02:19:43.510Z,6.5
2023-05-13T02:22:11.763Z,6.8
2023-05-13T02:24:40.022Z,6.2
2023-05-13T02:27:08.273Z,6.7
2023-05-13T02:29:36.534Z,6.4
2023-05-13T02:32:04.788Z,6.3
2023-05-13T02:33:19.521Z,6.7
2023-05-13T02:34:33.071Z,7.2
2023-05-13T02:39:29.579Z,6.9
2023-05-13T02:41:57.837Z,6.9
2023-05-13T02:44:26.093Z,7.1
2023-05-13T02:46:54.353Z,6.9
2023-05-13T02:49:22.607Z,6.7
2023-05-13T02:51:50.863Z,7
2023-05-13T02:54:19.120Z,7.3
2023-05-13T02:56:47.384Z,7.1
2023-05-13T02:58:02.109Z,7.2
2023-05-13T02:59:15.660Z,7.5
2023-05-13T03:01:43.914Z,7.5
2023-05-13T03:04:12.174Z,6.9
2023-05-13T03:06:40.431Z,7.3
2023-05-13T03:11:36.940Z,7.3
2023-05-13T03:14:05.197Z,7.4
2023-05-13T03:16:33.453Z,7.4
2023-05-13T03:19:01.708Z,7.7
2023-05-13T03:21:29.973Z,7.6
2023-05-13T03:22:44.696Z,7.5
2023-05-13T03:23:58.247Z,7.6
2023-05-13T03:26:26.505Z,7.8
2023-05-13T03:28:54.757Z,8.2
2023-05-13T03:31:23.022Z,7.9
2023-05-13T03:33:51.276Z,8.9
2023-05-13T03:36:19.530Z,8.4
2023-05-13T03:38:47.788Z,9.4
2023-05-13T03:43:44.300Z,8.7
2023-05-13T03:46:12.556Z,8.4
2023-05-13T03:47:27.289Z,8.4
2023-05-13T03:48:40.838Z,8.7
2023-05-13T03:51:09.095Z,8.8
2023-05-13T03:53:37.351Z,8.6
2023-05-13T03:56:05.605Z,8.2
2023-05-13T03:58:33.864Z,9.1
2023-05-13T04:01:02.122Z,8.9
2023-05-13T04:03:30.378Z,9.2
2023-05-13T04:05:58.642Z,8.5
2023-05-13T04:08:26.890Z,9
2023-05-13T04:10:55.152Z,8.4
2023-05-13T04:13:23.412Z,9.1
2023-05-13T04:15:51.669Z,8.7
2023-05-13T04:18:19.921Z,8.7
2023-05-13T04:20:48.178Z,8
2023-05-13T04:23:16.438Z,8.5
2023-05-13T04:25:44.691Z,8.4
2023-05-13T04:28:12.955Z,7.6
2023-05-13T04:30:41.209Z,8.8
2023-05-13T04:33:09.467Z,8.1
2023-05-13T04:35:37.721Z,7.8
2023-05-13T04:36:52.475Z,7.8
2023-05-13T04:38:06.018Z,8
2023-05-13T04:40:34.275Z,8
2023-05-13T04:45:30.785Z,7.5
2023-05-13T04:47:59.047Z,8.5
2023-05-13T04:50:27.300Z,8.4
2023-05-13T04:52:55.553Z,7.8
2023-05-13T04:55:23.810Z,8.3
2023-05-13T04:57:52.070Z,8.3
2023-05-13T05:00:20.321Z,7.9
2023-05-13T05:01:35.056Z,8.4
2023-05-13T05:02:48.603Z,7.8
2023-05-13T05:05:16.853Z,7.5
2023-05-13T05:07:45.118Z,8.5
2023-05-13T05:10:13.372Z,8.3
2023-05-13T05:12:41.626Z,7.7
2023-05-13T05:17:38.141Z,8.2
2023-05-13T05:20:06.393Z,7.6
2023-05-13T05:22:34.651Z,7.8
2023-05-13T05:25:02.912Z,7.3
2023-05-13T05:26:17.639Z,7.7
2023-05-13T05:27:31.183Z,7.5
2023-05-13T05:29:59.445Z,8
2023-05-13T05:32:27.695Z,7.7
2023-05-13T05:34:55.956Z,7.5
2023-05-13T05:37:24.207Z,7.2
2023-05-13T05:39:52.472Z,7.8
2023-05-13T05:42:20.727Z,7.2
2023-05-13T05:44:48.981Z,7.5
2023-05-13T05:49:45.496Z,7.4
2023-05-13T05:51:00.222Z,7.7
2023-05-13T05:52:13.772Z,7.7
2023-05-13T05:54:42.028Z,7.9
2023-05-13T05:57:10.284Z,7
2023-05-13T05:59:38.538Z,7.2
2023-05-13T06:02:06.799Z,7.7
2023-05-13T06:04:35.057Z,7.1
2023-05-13T06:07:03.312Z,7.7
2023-05-13T06:09:31.568Z,7.1
2023-05-13T06:11:59.821Z,6.8
2023-05-13T06:14:28.083Z,6.2
2023-05-13T06:15:42.807Z,7
2023-05-13T06:19:24.841Z,7
2023-05-13T06:21:53.097Z,6.9
2023-05-13T06:24:21.355Z,7.6
2023-05-13T06:26:49.611Z,6.6
2023-05-13T06:29:17.869Z,6.9
2023-05-13T06:31:46.134Z,7.2
2023-05-13T06:34:14.390Z,6.8
2023-05-13T06:36:42.646Z,7
2023-05-13T06:39:10.898Z,7.4
2023-05-13T06:40:25.629Z,6.9
2023-05-13T06:41:39.181Z,7.5
2023-05-13T06:44:07.431Z,7.7
2023-05-13T06:46:35.689Z,7.6
2023-05-13T06:51:32.204Z,6.8
2023-05-13T06:54:00.457Z,7.5
2023-05-13T06:56:28.715Z,6.8
2023-05-13T06:58:56.973Z,7.5
2023-05-13T07:01:25.235Z,6.5
2023-05-13T07:03:53.493Z,6.5
2023-05-13T07:05:08.223Z,6.8
2023-05-13T07:06:21.763Z,7.2
2023-05-13T07:08:50.025Z,6.7
2023-05-13T07:11:18.276Z,6.7
2023-05-13T07:13:46.537Z,6.9
2023-05-13T07:16:14.794Z,6.4
2023-05-13T07:18:43.048Z,6.5
2023-05-13T07:23:39.562Z,6.7
2023-05-13T07:26:07.815Z,6.4
2023-05-13T07:28:36.072Z,6.5
2023-05-13T07:29:50.802Z,6
2023-05-13T07:31:04.350Z,6.3
2023-05-13T07:33:32.611Z,6.3
2023-05-13T07:36:00.868Z,5.8
2023-05-13T07:38:29.119Z,6.2
2023-05-13T07:40:57.381Z,5.5
2023-05-13T07:43:25.639Z,5.6
2023-05-13T07:45:53.889Z,6
2023-05-13T07:48:22.149Z,5.7
2023-05-13T07:50:50.403Z,5.2
2023-05-13T07:54:33.387Z,5.1
2023-05-13T07:55:46.942Z,5.5
2023-05-13T07:58:15.193Z,5.7
2023-05-13T08:00:43.452Z,5.3
2023-05-13T08:03:11.714Z,5.5
2023-05-13T08:05:39.968Z,5.5
2023-05-13T08:08:08.222Z,5.7
2023-05-13T08:10:36.525Z,5.8
2023-05-13T08:13:04.738Z,5.5
2023-05-13T08:15:32.995Z,4.9
2023-05-13T08:18:01.246Z,5
2023-05-13T08:19:15.983Z,4.7
2023-05-13T08:20:29.525Z,5.3
2023-05-13T08:25:26.039Z,5.9
2023-05-13T08:27:54.297Z,5.4
2023-05-13T08:30:22.557Z,5
2023-05-13T08:32:50.805Z,4.9
2023-05-13T08:35:19.063Z,4.7
2023-05-13T08:37:47.325Z,4.5
2023-05-13T08:40:15.585Z,4.6
2023-05-13T08:42:43.835Z,4.3
2023-05-13T08:43:58.567Z,4.4
2023-05-13T08:45:12.112Z,4.2
2023-05-13T08:47:40.370Z,4.3
2023-05-13T08:50:08.632Z,3.7
2023-05-13T08:52:36.882Z,4
2023-05-13T08:57:33.399Z,4
2023-05-13T09:00:01.659Z,3.9
2023-05-13T09:02:29.909Z,3.7
2023-05-13T09:04:58.168Z,3.9
2023-05-13T09:07:26.425Z,3.7
2023-05-13T09:08:41.161Z,3.6
2023-05-13T09:09:54.703Z,3.8
2023-05-13T09:12:22.961Z,3.6
2023-05-13T09:14:51.218Z,4.2
2023-05-13T09:17:19.473Z,6.6
2023-05-13T09:19:47.734Z,3.6
2023-05-13T09:22:15.988Z,3.5
2023-05-13T09:24:44.250Z,3.5
2023-05-13T09:29:40.763Z,4.3
2023-05-13T09:32:09.014Z,4.2
2023-05-13T09:33:23.744Z,3.3
2023-05-13T09:34:37.292Z,6.5
2023-05-13T09:37:05.552Z,7.7
2023-05-13T09:39:33.806Z,3.7
2023-05-13T09:42:02.065Z,3
2023-05-13T09:44:30.321Z,3
2023-05-13T09:46:58.574Z,3.2
2023-05-13T09:49:26.835Z,3
2023-05-13T09:51:55.085Z,3.1
2023-05-13T09:54:23.347Z,3
2023-05-13T09:56:51.599Z,3.4
2023-05-13T09:59:19.861Z,3
2023-05-13T10:01:48.119Z,3.3
2023-05-13T10:04:16.376Z,8.1
2023-05-13T10:06:44.636Z,5.5
2023-05-13T10:09:12.888Z,3.7
2023-05-13T10:11:41.145Z,9.9
2023-05-13T10:14:09.401Z,3.5
2023-05-13T10:16:37.656Z,3.3
2023-05-13T10:19:05.915Z,3.1
2023-05-13T10:21:34.175Z,3.3
2023-05-13T10:22:48.921Z,3.3
2023-05-13T10:24:02.465Z,3.2
2023-05-13T10:26:30.717Z,3.2
2023-05-13T10:31:27.234Z,2.9
2023-05-13T10:33:55.491Z,2.9
2023-05-13T10:36:23.742Z,3
2023-05-13T10:38:52.001Z,3.5
2023-05-13T10:41:20.259Z,3.4
2023-05-13T10:43:48.520Z,3.7
2023-05-13T10:46:16.774Z,3.4
2023-05-13T10:47:31.502Z,3
2023-05-13T10:48:45.048Z,3.3
2023-05-13T10:51:13.307Z,2.9
2023-05-13T10:53:41.565Z,3.4
2023-05-13T10:56:09.816Z,3.6
2023-05-13T10:58:38.074Z,3
2023-05-13T11:03:34.589Z,3
2023-05-13T11:06:02.846Z,3.3
2023-05-13T11:08:31.106Z,3
2023-05-13T11:10:59.359Z,2.9
2023-05-13T11:12:14.086Z,3.3
2023-05-13T11:13:27.641Z,5.4
2023-05-13T11:15:55.899Z,4.8
2023-05-13T11:18:24.150Z,7
2023-05-13T11:20:52.410Z,13.2
2023-05-13T11:23:20.670Z,5.8
2023-05-13T11:25:48.922Z,3.3
2023-05-13T11:28:17.178Z,3.8
2023-05-13T11:30:45.438Z,3.3
2023-05-13T11:35:41.948Z,4.6
2023-05-13T11:36:56.676Z,2.8
2023-05-13T11:38:10.230Z,2.9
2023-05-13T11:40:38.482Z,3.1
2023-05-13T11:43:06.741Z,3
2023-05-13T11:45:35.003Z,3.2
2023-05-13T11:48:03.252Z,3.2
2023-05-13T11:50:31.517Z,3.1
2023-05-13T11:52:59.773Z,3.1
2023-05-13T11:55:28.025Z,3
2023-05-13T11:57:56.285Z,2.8
2023-05-13T12:00:24.537Z,2.8
2023-05-13T12:01:39.267Z,2.9
2023-05-13T12:05:21.302Z,2.7
2023-05-13T12:07:49.565Z,2.5
2023-05-13T12:10:17.823Z,3.7
2023-05-13T12:12:46.081Z,3
2023-05-13T12:15:14.337Z,2.7
2023-05-13T12:17:42.595Z,2.9
2023-05-13T12:20:10.846Z,2.7
2023-05-13T12:22:39.106Z,2.7
2023-05-13T12:25:07.364Z,2.9
2023-05-13T12:26:22.086Z,2.4
2023-05-13T12:27:35.638Z,2.8
2023-05-13T12:30:03.891Z,2.7
2023-05-13T12:32:32.149Z,2.4
2023-05-13T12:37:28.663Z,2.6
2023-05-13T12:39:56.917Z,2.4
2023-05-13T12:42:25.181Z,2.7
2023-05-13T12:44:53.433Z,2.5
2023-05-13T12:47:21.688Z,2.6
2023-05-13T12:49:49.946Z,2.5
2023-05-13T12:51:04.675Z,2.5
2023-05-13T12:52:18.223Z,2.7
2023-05-13T12:54:46.479Z,2.4
2023-05-13T12:57:14.735Z,2.3
2023-05-13T12:59:43.000Z,2.7
2023-05-13T13:02:11.255Z,2.5
2023-05-13T13:04:39.508Z,2.5
2023-05-13T13:09:36.024Z,2.2
2023-05-13T13:12:04.280Z,2.3
2023-05-13T13:14:32.541Z,2.6
2023-05-13T13:15:47.272Z,2.5
2023-05-13T13:17:00.818Z,3.3
2023-05-13T13:19:29.068Z,2.8
2023-05-13T13:21:57.331Z,2.7
2023-05-13T13:24:25.581Z,2.8
2023-05-13T13:26:53.845Z,2.5
2023-05-13T13:29:22.095Z,2.3
2023-05-13T13:31:50.356Z,3.2
2023-05-13T13:34:18.609Z,2.7
2023-05-13T13:36:46.869Z,2.4
2023-05-13T13:40:29.852Z,2.3
2023-05-13T13:41:43.405Z,2
2023-05-13T13:44:11.657Z,2.3
2023-05-13T13:46:39.913Z,2.6
2023-05-13T13:49:08.181Z,2.1
2023-05-13T13:51:36.432Z,2.1
2023-05-13T13:54:04.694Z,2.4
2023-05-13T13:56:32.944Z,2.5
2023-05-13T13:59:01.208Z,2
2023-05-13T14:01:29.464Z,2.1
2023-05-13T14:03:57.718Z,2.1
2023-05-13T14:05:12.445Z,2.3
2023-05-13T14:06:25.994Z,2.3
2023-05-13T14:11:22.504Z,2.3
2023-05-13T14:13:50.766Z,2.4
2023-05-13T14:16:19.021Z,2.2
2023-05-13T14:18:47.275Z,2.2
2023-05-13T14:21:15.535Z,2
2023-05-13T14:23:43.790Z,2.2
2023-05-13T14:26:12.044Z,2
2023-05-13T14:28:40.303Z,2.1
2023-05-13T14:29:55.034Z,1.8
2023-05-13T14:31:08.578Z,2
2023-05-13T14:33:36.842Z,2.3
2023-05-13T14:36:05.093Z,2.1
2023-05-13T14:38:33.350Z,1.9
2023-05-13T14:43:29.868Z,2.4
2023-05-13T14:45:58.124Z,2.1
2023-05-13T14:48:26.373Z,2.3
2023-05-13T14:50:54.637Z,2.1
2023-05-13T14:53:22.892Z,2.2
2023-05-13T14:54:37.619Z,2.2
2023-05-13T14:55:51.168Z,2.2
2023-05-13T14:58:19.423Z,2
2023-05-13T15:00:47.684Z,2.3
2023-05-13T15:03:15.939Z,2
2023-05-13T15:05:44.193Z,2.2
2023-05-13T15:08:12.447Z,1.6
2023-05-13T15:10:40.709Z,1.9
2023-05-13T15:15:37.217Z,2
2023-05-13T15:18:05.481Z,1.9
2023-05-13T15:19:20.205Z,2
2023-05-13T15:20:33.752Z,2.1
2023-05-13T15:23:02.006Z,2.2
2023-05-13T15:25:30.266Z,2
2023-05-13T15:27:58.522Z,2.1
2023-05-13T15:30:26.776Z,2.2
2023-05-13T15:32:55.035Z,4.2
2023-05-13T15:35:23.295Z,2.6
2023-05-13T15:37:51.554Z,2.4
2023-05-13T15:40:19.809Z,2.3
2023-05-13T15:42:48.064Z,2.3
2023-05-13T15:45:16.319Z,2.2
2023-05-13T15:47:44.577Z,2.5
2023-05-13T15:50:12.839Z,2.3
2023-05-13T15:52:41.093Z,2.2
2023-05-13T15:55:09.348Z,2.5
2023-05-13T15:57:37.603Z,2.4
2023-05-13T16:00:05.862Z,2.6
2023-05-13T16:02:34.120Z,2.4
2023-05-13T16:05:02.374Z,2.1
2023-05-13T16:07:30.627Z,2.1
2023-05-13T16:08:45.374Z,2.1
2023-05-13T16:09:58.925Z,2.2
2023-05-13T16:12:27.182Z,2.4
2023-05-13T16:17:23.695Z,2.3
2023-05-13T16:19:51.950Z,2.4
2023-05-13T16:22:20.201Z,2.2
2023-05-13T16:24:48.465Z,2.5
2023-05-13T16:27:16.721Z,2.2
2023-05-13T16:29:44.973Z,2.6
2023-05-13T16:32:13.229Z,2.3
2023-05-13T16:33:27.962Z,2.3
2023-05-13T16:34:41.509Z,2.3
2023-05-13T16:37:09.766Z,2.3
2023-05-13T16:39:38.021Z,2.2
2023-05-13T16:42:06.280Z,2.4
2023-05-13T16:44:34.529Z,2.1
2023-05-13T16:49:31.045Z,2.4
2023-05-13T16:51:59.303Z,2.4
2023-05-13T16:54:27.562Z,2.4
2023-05-13T16:56:55.821Z,2.3
2023-05-13T16:58:10.545Z,2
2023-05-13T16:59:24.097Z,2.3
2023-05-13T17:01:52.352Z,2.2
2023-05-13T17:04:20.608Z,2.2
2023-05-13T17:06:48.868Z,2.2
2023-05-13T17:09:17.120Z,2.4
2023-05-13T17:11:45.390Z,2.1
2023-05-13T17:14:13.641Z,2.3
2023-05-13T17:16:41.892Z,2.3
2023-05-13T17:21:38.406Z,2.5
2023-05-13T17:22:53.138Z,2.4
2023-05-13T17:24:06.684Z,2.3
2023-05-13T17:26:34.939Z,2
2023-05-13T17:29:03.196Z,2.4
2023-05-13T17:31:31.459Z,2.2
2023-05-13T17:33:59.713Z,2.3
2023-05-13T17:36:27.967Z,2.2
2023-05-13T17:38:56.230Z,2.3
2023-05-13T17:41:24.487Z,2.3
2023-05-13T17:43:52.745Z,2.6
2023-05-13T17:46:20.993Z,2.1
2023-05-13T17:47:35.724Z,2.2
2023-05-13T17:51:17.760Z,2.3
2023-05-13T17:53:46.025Z,2.5
2023-05-13T17:56:14.282Z,2.3
2023-05-13T17:58:42.530Z,2.5
2023-05-13T18:01:10.788Z,2.3
2023-05-13T18:03:39.045Z,2.3
2023-05-13T18:06:07.309Z,2.4
2023-05-13T18:08:35.566Z,2.3
2023-05-13T18:11:03.816Z,2.3
2023-05-13T18:12:18.545Z,2.4
2023-05-13T18:13:32.098Z,2.3
2023-05-13T18:16:00.352Z,2.1
2023-05-13T18:18:28.608Z,2.4
2023-05-13T18:23:25.115Z,2.8
2023-05-13T18:25:53.379Z,2.6
2023-05-13T18:28:21.629Z,2.1
2023-05-13T18:30:49.887Z,2.7
2023-05-13T18:33:18.142Z,2.5
2023-05-13T18:35:46.398Z,2.5
2023-05-13T18:37:01.127Z,2.3
2023-05-13T18:38:14.681Z,2.9
2023-05-13T18:40:42.933Z,2.4
2023-05-13T18:43:11.190Z,2.6
2023-05-13T18:45:39.447Z,2.3
2023-05-13T18:48:07.700Z,2.4
2023-05-13T18:50:35.957Z,2.5
2023-05-13T18:55:32.471Z,3
2023-05-13T18:58:00.730Z,2.5
2023-05-13T19:00:28.988Z,2.5
2023-05-13T19:01:43.715Z,2.8
2023-05-13T19:02:57.267Z,2.9
2023-05-13T19:05:25.521Z,3.4
2023-05-13T19:07:53.776Z,3.4
2023-05-13T19:10:22.034Z,3.3
2023-05-13T19:12:50.286Z,4.3
2023-05-13T19:15:18.549Z,2.7
2023-05-13T19:17:46.804Z,2.4
2023-05-13T19:20:15.063Z,2.5
2023-05-13T19:22:43.320Z,2.6
2023-05-13T19:26:26.303Z,2.8
2023-05-13T19:27:39.850Z,2.9
2023-05-13T19:30:08.111Z,2.6
2023-05-13T19:32:36.362Z,2.6
2023-05-13T19:35:04.622Z,2.7
2023-05-13T19:37:32.874Z,2.5
2023-05-13T19:40:01.135Z,2.5
2023-05-13T19:42:29.389Z,2.9
2023-05-13T19:44:57.645Z,2.9
2023-05-13T19:47:25.907Z,2.8
2023-05-13T19:49:54.167Z,2.6
2023-05-13T19:51:08.894Z,2.5
2023-05-13T19:52:22.443Z,2.5
2023-05-13T19:57:18.953Z,2.8
2023-05-13T19:59:47.206Z,2.7
2023-05-13T20:02:15.470Z,3.2
2023-05-13T20:04:43.718Z,3
2023-05-13T20:07:11.978Z,2.6
2023-05-13T20:09:40.239Z,2.7
2023-05-13T20:12:08.496Z,3.1
2023-05-13T20:14:36.752Z,2.8
2023-05-13T20:15:51.479Z,2.7
2023-05-13T20:17:05.020Z,3
2023-05-13T20:19:33.281Z,2.7
2023-05-13T20:22:01.538Z,3.2
2023-05-13T20:24:29.792Z,3
2023-05-13T20:29:26.302Z,3.1
2023-05-13T20:31:54.564Z,3.4
2023-05-13T20:34:22.819Z,3.2
2023-05-13T20:36:51.075Z,2.9
2023-05-13T20:39:19.338Z,3.2
2023-05-13T20:40:34.062Z,3.2
2023-05-13T20:41:47.610Z,3.4
2023-05-13T20:44:15.868Z,3.1
2023-05-13T20:46:44.120Z,3.5
2023-05-13T20:49:12.372Z,3.5
2023-05-13T20:51:40.631Z,3.4
2023-05-13T20:54:08.887Z,3.2
2023-05-13T20:56:37.143Z,3.4
2023-05-13T21:01:33.657Z,3.2
2023-05-13T21:04:01.916Z,3.3
2023-05-13T21:05:16.644Z,3.5
2023-05-13T21:06:30.194Z,3.4
2023-05-13T21:08:58.446Z,3.2
2023-05-13T21:11:26.704Z,3.2
2023-05-13T21:13:54.964Z,3.3
2023-05-13T21:16:23.215Z,3.6
2023-05-13T21:18:51.478Z,3.5
2023-05-13T21:21:19.729Z,3.7
2023-05-13T21:23:47.987Z,3.2
2023-05-13T21:26:16.244Z,3.2
2023-05-13T21:28:44.502Z,3.7
2023-05-13T21:31:12.765Z,3.5
2023-05-13T21:33:41.017Z,3.6
2023-05-13T21:36:09.271Z,3.7
2023-05-13T21:38:37.533Z,3.4
2023-05-13T21:41:05.787Z,3.9
2023-05-13T21:43:34.045Z,3.6
2023-05-13T21:46:02.303Z,3.4
2023-05-13T21:48:30.558Z,3.3
2023-05-13T21:50:58.811Z,3.6
2023-05-13T21:53:27.074Z,3.5
2023-05-13T21:54:41.823Z,4.3
2023-05-13T21:55:55.371Z,3.6
2023-05-13T21:58:23.620Z,4.4
2023-05-13T22:03:20.142Z,4
2023-05-13T22:05:48.389Z,3.7
2023-05-13T22:08:16.655Z,3.6
2023-05-13T22:10:44.903Z,3.8
2023-05-13T22:13:13.161Z,3.9
2023-05-13T22:15:41.425Z,3.8
2023-05-13T22:18:09.679Z,3.8
2023-05-13T22:19:24.407Z,4.3
2023-05-13T22:20:37.959Z,3.5
2023-05-13T22:23:06.211Z,3.5
2023-05-13T22:25:34.464Z,3.6
2023-05-13T22:28:02.722Z,3.8
2023-05-13T22:30:30.986Z,3.5
2023-05-13T22:35:27.492Z,3.4
2023-05-13T22:37:55.754Z,3.9
2023-05-13T22:40:24.014Z,3.6
2023-05-13T22:42:52.262Z,3.9
2023-05-13T22:44:06.993Z,3.6
2023-05-13T22:45:20.548Z,3.6
2023-05-13T22:47:48.802Z,4.2
2023-05-13T22:50:17.053Z,4
2023-05-13T22:52:45.314Z,4.5
2023-05-13T22:55:13.567Z,4.4
2023-05-13T22:57:41.823Z,4.3
2023-05-13T23:00:10.082Z,4
2023-05-13T23:02:38.345Z,4.2
2023-05-13T23:07:34.850Z,4.1
2023-05-13T23:08:49.583Z,4
2023-05-13T23:10:03.130Z,4.2
2023-05-13T23:12:31.391Z,4.2
2023-05-13T23:14:59.647Z,4
2023-05-13T23:17:27.905Z,4
2023-05-13T23:19:56.155Z,4
2023-05-13T23:22:24.413Z,4.5
2023-05-13T23:24:52.671Z,4
2023-05-13T23:27:20.935Z,4.1
2023-05-13T23:29:49.185Z,3.9
2023-05-13T23:32:17.444Z,3.9
2023-05-13T23:33:32.178Z,4
2023-05-13T23:37:14.214Z,4
2023-05-13T23:39:42.468Z,3.8
2023-05-13T23:42:10.723Z,4
2023-05-13T23:44:38.978Z,3.9
2023-05-13T23:47:07.242Z,4.1
2023-05-13T23:49:35.500Z,3.9
2023-05-13T23:52:03.758Z,3.9
2023-05-13T23:54:32.016Z,4.2
2023-05-13T23:57:00.264Z,4.2
2023-05-13T23:58:15.001Z,4
2023-05-13T23:59:28.547Z,4
